Time;durP1;ratioP1;P1;durP2;ratioP2;P2;SDS_P1;SDS_P2;PMS_P1;PMS_P2;Temp;Humidity;BMP_temperature;BMP_pressure;BME280_temperature;BME280_humidity;BME280_pressure;Samples;Min_cycle;Max_cycle;Signal;HPM_P1;HPM_P2
2021/08/30 00:00:08;;;;;;;18.35;10.05;;;;;;;19.42;91.22;98731.19;1675442;83;20983;-68
2021/08/30 00:02:35;;;;;;;14.20;9.50;;;;;;;19.43;91.07;98727.22;1650568;85;20917;-68
2021/08/30 00:05:05;;;;;;;13.32;8.48;;;;;;;19.44;90.88;98728.22;1680237;83;20897;-68
2021/08/30 00:07:32;;;;;;;13.78;8.58;;;;;;;19.42;90.75;98736.19;1690761;83;21129;-67
2021/08/30 00:10:00;;;;;;;14.87;9.08;;;;;;;19.42;90.91;98729.80;1712850;82;21009;-69
2021/08/30 00:12:28;;;;;;;17.45;9.28;;;;;;;19.43;90.77;98728.62;1670783;85;21418;-69
2021/08/30 00:14:57;;;;;;;12.25;9.38;;;;;;;19.36;90.58;98732.21;1655574;85;20953;-67
2021/08/30 00:17:25;;;;;;;14.40;9.38;;;;;;;19.30;91.19;98724.02;1674488;84;21029;-68
2021/08/30 00:19:53;;;;;;;19.95;9.73;;;;;;;19.28;91.28;98730.00;1674557;84;21012;-68
2021/08/30 00:22:21;;;;;;;10.30;8.25;;;;;;;19.23;91.28;98726.21;1676067;83;20911;-69
2021/08/30 00:24:50;;;;;;;13.35;9.23;;;;;;;19.22;91.60;98730.21;1667026;84;20912;-68
2021/08/30 00:27:21;;;;;;;13.20;8.18;;;;;;;19.23;91.58;98723.42;1677626;85;20988;-68
2021/08/30 00:29:48;;;;;;;12.58;9.00;;;;;;;19.23;91.59;98724.04;1670446;85;21023;-69
2021/08/30 00:32:19;;;;;;;11.65;8.35;;;;;;;19.24;91.46;98732.60;1680518;85;20916;-70
2021/08/30 00:34:47;;;;;;;17.42;9.60;;;;;;;19.24;91.21;98736.20;1666575;85;20995;-69
2021/08/30 00:37:16;;;;;;;15.65;9.08;;;;;;;19.25;91.10;98739.18;1646082;87;20908;-69
2021/08/30 00:39:49;;;;;;;17.70;9.50;;;;;;;19.27;90.94;98737.38;1609616;87;21068;-69
2021/08/30 00:42:19;;;;;;;17.98;9.33;;;;;;;19.26;90.80;98733.01;1670329;85;21029;-68
2021/08/30 00:44:46;;;;;;;11.85;8.55;;;;;;;19.27;90.66;98731.21;1669414;86;21063;-68
2021/08/30 00:47:14;;;;;;;12.28;9.18;;;;;;;19.28;90.55;98736.98;1672138;85;21460;-69
2021/08/30 00:49:41;;;;;;;15.20;9.08;;;;;;;19.29;90.48;98733.02;1678677;85;20905;-70
2021/08/30 00:52:12;;;;;;;13.62;8.88;;;;;;;19.30;90.46;98733.78;1683091;85;21485;-69
2021/08/30 00:54:38;;;;;;;11.05;9.08;;;;;;;19.31;90.38;98737.58;1679860;84;20841;-70
2021/08/30 00:57:05;;;;;;;13.65;8.58;;;;;;;19.32;90.30;98736.98;1616623;85;21414;-70
2021/08/30 00:59:31;;;;;;;14.40;8.25;;;;;;;19.34;90.24;98743.75;1650605;85;21010;-69
2021/08/30 01:01:58;;;;;;;11.88;8.70;;;;;;;19.36;90.20;98747.57;1644408;85;21508;-70
2021/08/30 01:04:28;;;;;;;12.58;9.63;;;;;;;19.37;90.04;98744.16;1679830;85;20988;-71
2021/08/30 01:07:13;;;;;;;11.60;8.30;;;;;;;19.32;89.82;98743.37;1642747;86;21135;-70
2021/08/30 01:09:59;;;;;;;9.80;8.00;;;;;;;19.28;90.13;98740.36;1642946;85;21065;-69
2021/08/30 01:12:35;;;;;;;11.68;8.65;;;;;;;19.28;90.16;98739.77;1665890;85;21005;-71
2021/08/30 01:15:15;;;;;;;12.50;8.30;;;;;;;19.30;90.18;98736.58;1683481;85;20949;-70
2021/08/30 01:17:42;;;;;;;16.15;8.98;;;;;;;19.29;90.14;98731.61;1630323;86;21536;-70
2021/08/30 01:20:20;;;;;;;11.35;9.40;;;;;;;19.32;90.19;98734.20;1650348;85;21008;-69
2021/08/30 01:22:51;;;;;;;12.58;8.08;;;;;;;19.35;90.11;98730.59;1698539;83;21929;-70
2021/08/30 01:25:20;;;;;;;10.68;8.03;;;;;;;19.37;89.99;98732.98;1677084;84;20997;-70
2021/08/30 01:27:48;;;;;;;12.13;8.78;;;;;;;19.38;89.93;98727.00;1668822;84;20860;-71
2021/08/30 01:30:17;;;;;;;13.95;8.50;;;;;;;19.38;89.79;98727.00;1718359;83;21531;-69
2021/08/30 01:32:47;;;;;;;12.65;8.30;;;;;;;19.39;89.77;98725.82;1695936;84;21465;-70
2021/08/30 01:35:17;;;;;;;12.30;8.65;;;;;;;19.40;89.62;98721.02;1694885;84;21770;-69
2021/08/30 01:37:45;;;;;;;12.98;9.25;;;;;;;19.41;89.47;98729.02;1710113;84;20988;-70
2021/08/30 01:40:13;;;;;;;11.08;7.95;;;;;;;19.41;89.49;98730.42;1718038;83;21021;-71
2021/08/30 01:42:46;;;;;;;11.15;8.18;;;;;;;19.41;89.42;98737.40;1631677;85;21565;-70
2021/08/30 01:45:16;;;;;;;9.90;7.95;;;;;;;19.43;89.40;98752.36;1689831;84;21017;-70
2021/08/30 01:47:43;;;;;;;10.28;8.55;;;;;;;19.43;89.34;98754.53;1710079;83;21052;-71
2021/08/30 01:50:18;;;;;;;11.40;7.53;;;;;;;19.42;89.31;98747.36;1708798;83;21048;-70
2021/08/30 01:52:50;;;;;;;11.03;8.33;;;;;;;19.42;89.34;98747.95;1682164;85;20937;-70
2021/08/30 02:00:43;;;;;;;12.23;8.33;;;;;;;19.42;89.12;98745.16;1665570;84;21493;-69
2021/08/30 02:03:29;;;;;;;14.83;8.98;;;;;;;19.40;88.91;98758.13;1710361;83;21015;-70
2021/08/30 02:06:04;;;;;;;12.53;8.35;;;;;;;19.39;88.97;98765.51;1704654;83;20924;-71
2021/08/30 02:08:33;;;;;;;11.70;8.13;;;;;;;19.40;89.06;98759.52;1675217;84;26513;-70
2021/08/30 02:11:03;;;;;;;15.78;8.90;;;;;;;19.41;89.00;98762.53;1707247;82;21538;-69
2021/08/30 02:13:30;;;;;;;15.18;8.90;;;;;;;19.43;89.10;98778.27;1680558;84;21115;-69
2021/08/30 02:16:01;;;;;;;12.10;8.35;;;;;;;19.43;89.01;98791.45;1688597;83;20925;-71
2021/08/30 02:18:45;;;;;;;18.07;9.18;;;;;;;19.40;88.95;98801.41;1666336;85;21013;-71
2021/08/30 02:21:41;;;;;;;14.10;8.45;;;;;;;19.40;89.02;98804.80;1696323;84;21001;-70
2021/08/30 02:24:31;;;;;;;11.83;8.20;;;;;;;19.40;88.88;98804.20;1710373;84;21411;-71
2021/08/30 02:27:02;;;;;;;13.85;9.65;;;;;;;19.33;88.91;98794.42;1679074;84;21495;-71
2021/08/30 02:29:34;;;;;;;13.43;8.43;;;;;;;19.30;89.04;98799.41;1671497;84;21125;-71
2021/08/30 02:32:04;;;;;;;20.70;9.75;;;;;;;19.24;88.92;98794.83;1706222;83;21585;-71
2021/08/30 02:34:33;;;;;;;14.40;8.75;;;;;;;19.23;89.13;98805.78;1683062;84;21481;-71
2021/08/30 02:37:02;;;;;;;11.78;8.93;;;;;;;19.23;89.19;98800.20;1710282;83;21044;-70
2021/08/30 02:39:31;;;;;;;16.07;8.83;;;;;;;19.24;89.08;98793.44;1680150;84;21703;-71
2021/08/30 02:41:58;;;;;;;15.75;7.85;;;;;;;19.24;88.95;98791.23;1680731;84;20950;-72
2021/08/30 02:44:26;;;;;;;18.85;9.25;;;;;;;19.23;88.83;98787.63;1678148;84;21648;-70
2021/08/30 02:46:58;;;;;;;14.13;9.08;;;;;;;19.23;88.66;98789.65;1667697;84;20996;-70
2021/08/30 02:49:27;;;;;;;15.93;9.25;;;;;;;19.17;88.41;98786.44;1667506;83;21423;-70
2021/08/30 02:51:58;;;;;;;18.00;9.08;;;;;;;19.14;88.55;98790.81;1710207;84;22162;-72
2021/08/30 02:54:27;;;;;;;12.23;8.33;;;;;;;19.12;88.45;98790.43;1707383;83;20949;-71
2021/08/30 02:56:53;;;;;;;11.55;8.30;;;;;;;19.13;88.34;98791.20;1702998;84;21008;-71
2021/08/30 02:59:20;;;;;;;12.88;8.88;;;;;;;19.09;88.19;98793.95;1686540;84;21580;-70
2021/08/30 03:01:47;;;;;;;9.80;7.60;;;;;;;19.06;88.17;98787.19;1680291;84;21997;-71
2021/08/30 03:04:16;;;;;;;14.10;8.13;;;;;;;19.06;88.22;98780.80;1701459;83;21894;-70
2021/08/30 03:06:42;;;;;;;13.18;8.18;;;;;;;19.07;88.21;98779.63;1710213;83;20898;-70
2021/08/30 03:09:09;;;;;;;16.30;7.87;;;;;;;19.06;88.18;98787.78;1709864;84;21458;-70
2021/08/30 03:11:36;;;;;;;16.50;7.85;;;;;;;19.06;88.01;98785.80;1710245;82;21061;-71
2021/08/30 03:14:04;;;;;;;18.90;8.98;;;;;;;19.04;87.88;98787.40;1678292;84;21041;-70
2021/08/30 03:16:31;;;;;;;13.88;8.40;;;;;;;19.02;88.04;98793.34;1670101;83;21088;-71
2021/08/30 03:19:00;;;;;;;15.40;7.75;;;;;;;19.00;88.14;98792.97;1693124;84;21601;-70
2021/08/30 03:21:28;;;;;;;12.73;8.50;;;;;;;19.01;88.24;98788.16;1657680;85;20934;-70
2021/08/30 03:23:55;;;;;;;15.38;8.03;;;;;;;19.03;88.21;98792.17;1695902;84;21486;-70
2021/08/30 03:26:22;;;;;;;12.15;7.95;;;;;;;19.04;88.14;98789.57;1707278;84;21056;-71
2021/08/30 03:28:50;;;;;;;16.20;8.40;;;;;;;19.05;88.07;98787.00;1709975;84;21971;-71
2021/08/30 03:31:16;;;;;;;12.95;7.72;;;;;;;19.09;88.00;98789.19;1688226;83;21026;-70
2021/08/30 03:33:45;;;;;;;10.55;7.45;;;;;;;19.11;87.66;98786.64;1680409;84;21060;-70
2021/08/30 03:36:12;;;;;;;13.20;7.95;;;;;;;19.08;87.57;98789.58;1681828;85;20989;-72
2021/08/30 03:38:40;;;;;;;10.63;8.03;;;;;;;19.07;87.49;98792.96;1695686;84;21029;-70
2021/08/30 03:41:07;;;;;;;13.78;7.47;;;;;;;19.07;87.57;98789.39;1695275;84;21083;-69
2021/08/30 03:43:34;;;;;;;10.53;7.47;;;;;;;19.09;87.55;98780.81;1697632;83;21104;-71
2021/08/30 03:46:01;;;;;;;17.12;7.95;;;;;;;19.11;87.50;98775.47;1654767;85;21072;-71
2021/08/30 03:48:30;;;;;;;17.60;8.43;;;;;;;19.12;87.47;98767.29;1653324;85;21074;-71
2021/08/30 03:50:57;;;;;;;13.55;7.60;;;;;;;19.13;87.27;98765.50;1652442;85;21449;-71
2021/08/30 03:53:23;;;;;;;14.35;8.08;;;;;;;19.14;87.13;98769.88;1704243;83;21141;-71
2021/08/30 03:55:50;;;;;;;16.05;7.80;;;;;;;19.17;87.06;98771.09;1718544;83;21005;-71
2021/08/30 03:58:18;;;;;;;14.75;7.87;;;;;;;19.18;86.99;98765.10;1679944;84;21498;-68
2021/08/30 04:00:46;;;;;;;15.65;7.70;;;;;;;19.21;86.91;98769.08;1711276;83;20972;-70
2021/08/30 04:03:14;;;;;;;16.60;8.80;;;;;;;19.24;86.70;98772.50;1688113;83;21477;-71
2021/08/30 04:05:44;;;;;;;14.65;8.88;;;;;;;19.25;86.58;98775.48;1678498;85;21197;-71
2021/08/30 04:08:11;;;;;;;13.30;8.88;;;;;;;19.28;86.53;98773.87;1700180;82;20910;-70
2021/08/30 04:10:38;;;;;;;14.68;8.48;;;;;;;19.27;86.39;98771.70;1691504;83;20965;-69
2021/08/30 04:13:05;;;;;;;17.73;8.05;;;;;;;19.30;86.33;98763.11;1682623;83;20937;-71
2021/08/30 04:15:33;;;;;;;17.20;8.35;;;;;;;19.32;86.27;98776.08;1718050;83;21154;-71
2021/08/30 04:18:02;;;;;;;11.63;8.35;;;;;;;19.33;86.13;98772.89;1691415;83;20965;-71
2021/08/30 04:20:30;;;;;;;12.63;8.40;;;;;;;19.34;86.02;98766.09;1688711;84;21000;-71
2021/08/30 04:22:57;;;;;;;12.78;8.53;;;;;;;19.34;86.01;98760.51;1701481;82;21481;-69
2021/08/30 04:25:23;;;;;;;15.35;8.90;;;;;;;19.36;85.86;98767.13;1728713;83;20977;-69
2021/08/30 04:27:51;;;;;;;15.10;8.40;;;;;;;19.39;85.69;98759.92;1731114;82;20956;-69
2021/08/30 04:30:20;;;;;;;12.90;8.13;;;;;;;19.41;85.61;98758.94;1731610;83;21757;-71
2021/08/30 04:32:54;;;;;;;14.73;8.48;;;;;;;19.42;85.45;98757.13;1730676;82;20940;-70
2021/08/30 04:35:20;;;;;;;15.50;9.48;;;;;;;19.44;85.32;98758.94;1731073;82;21007;-69
2021/08/30 04:37:46;;;;;;;16.90;8.70;;;;;;;19.46;85.30;98753.73;1718880;82;21005;-71
2021/08/30 04:40:17;;;;;;;13.78;9.15;;;;;;;19.48;85.01;98759.53;1713373;83;21052;-68
2021/08/30 04:42:44;;;;;;;11.28;8.08;;;;;;;19.46;84.71;98788.64;1711974;83;21179;-69
2021/08/30 04:45:12;;;;;;;10.72;8.68;;;;;;;19.46;84.88;98807.41;1702011;83;20972;-69
2021/08/30 04:47:40;;;;;;;15.55;8.98;;;;;;;19.48;84.85;98817.59;1708198;83;21369;-69
2021/08/30 04:50:09;;;;;;;14.43;9.15;;;;;;;19.47;84.51;98821.56;1711381;83;21375;-71
2021/08/30 04:52:39;;;;;;;11.18;8.60;;;;;;;19.50;84.69;98821.39;1722687;83;21087;-69
2021/08/30 04:55:07;;;;;;;18.98;9.50;;;;;;;19.53;84.65;98817.17;1701043;84;21518;-69
2021/08/30 04:57:33;;;;;;;16.10;10.28;;;;;;;19.57;84.48;98814.38;1711038;83;21071;-69
2021/08/30 05:00:02;;;;;;;13.58;8.50;;;;;;;19.60;84.23;98800.23;1728789;82;21005;-68
2021/08/30 05:02:31;;;;;;;15.80;8.78;;;;;;;19.62;84.28;98783.88;1713710;83;21064;-70
2021/08/30 05:04:59;;;;;;;16.60;9.25;;;;;;;19.65;84.25;98782.45;1731796;83;21457;-67
2021/08/30 05:07:26;;;;;;;15.70;8.95;;;;;;;19.70;84.12;98778.47;1728928;82;21072;-68
2021/08/30 05:09:52;;;;;;;15.03;9.13;;;;;;;19.73;83.98;98776.86;1731151;83;21552;-69
2021/08/30 05:12:26;;;;;;;12.70;8.85;;;;;;;19.75;83.59;98784.25;1731217;82;20896;-68
2021/08/30 05:14:53;;;;;;;18.55;9.55;;;;;;;19.78;83.89;98784.84;1731474;83;20913;-68
2021/08/30 05:17:21;;;;;;;18.90;9.70;;;;;;;19.86;83.88;98796.83;1709147;83;20964;-70
2021/08/30 05:19:56;;;;;;;20.35;10.95;;;;;;;19.93;83.68;98796.80;1701428;83;21004;-69
2021/08/30 05:22:24;;;;;;;21.77;9.60;;;;;;;20.03;83.60;98783.98;1712581;83;21516;-70
2021/08/30 05:24:55;;;;;;;17.80;9.60;;;;;;;20.12;83.42;98770.43;1717115;83;20973;-70
2021/08/30 05:27:23;;;;;;;23.38;10.15;;;;;;;20.21;82.97;98770.02;1693296;83;21278;-71
2021/08/30 05:29:50;;;;;;;23.75;10.03;;;;;;;20.25;82.62;98771.41;1708756;84;21061;-70
2021/08/30 05:32:17;;;;;;;19.55;9.65;;;;;;;20.30;82.40;98764.77;1701256;84;21531;-73
2021/08/30 05:34:44;;;;;;;23.77;10.55;;;;;;;20.32;82.01;98758.77;1698249;84;21056;-71
2021/08/30 05:37:14;;;;;;;17.10;9.90;;;;;;;20.34;81.92;98755.56;1685881;84;21568;-70
2021/08/30 05:39:42;;;;;;;17.20;9.35;;;;;;;20.35;81.74;98746.77;1661481;84;21561;-71
2021/08/30 05:42:14;;;;;;;17.92;9.85;;;;;;;20.38;81.49;98748.78;1686486;83;21065;-70
2021/08/30 05:44:43;;;;;;;16.10;9.10;;;;;;;20.40;81.19;98751.94;1661167;84;21229;-70
2021/08/30 05:47:11;;;;;;;20.37;10.78;;;;;;;20.44;80.95;98746.34;1673509;83;21020;-70
2021/08/30 05:49:39;;;;;;;28.35;10.82;;;;;;;20.48;80.73;98749.92;1688483;84;20897;-69
2021/08/30 05:52:08;;;;;;;26.77;10.95;;;;;;;20.55;80.36;98757.48;1691472;84;21021;-70
2021/08/30 05:54:42;;;;;;;23.15;9.90;;;;;;;20.59;80.45;98766.64;1690562;83;21032;-70
2021/08/30 05:57:11;;;;;;;23.47;10.63;;;;;;;20.66;80.11;98769.41;1669361;84;20953;-68
2021/08/30 05:59:44;;;;;;;15.60;10.38;;;;;;;20.71;79.75;98770.98;1693220;84;21616;-68
2021/08/30 06:02:12;;;;;;;24.75;10.32;;;;;;;20.76;79.16;98779.58;1694892;83;21044;-70
2021/08/30 06:04:39;;;;;;;16.02;9.85;;;;;;;20.77;78.92;98751.77;1688999;83;20998;-69
2021/08/30 06:07:09;;;;;;;20.77;9.50;;;;;;;20.78;78.71;98737.37;1673794;84;21540;-70
2021/08/30 06:09:40;;;;;;;20.23;8.95;;;;;;;20.78;78.48;98740.76;1681449;84;21441;-69
2021/08/30 06:12:08;;;;;;;19.52;9.78;;;;;;;20.78;78.73;98744.95;1687048;84;20988;-72
2021/08/30 06:14:40;;;;;;;21.93;9.65;;;;;;;20.77;78.44;98737.19;1681508;84;21051;-69
2021/08/30 06:17:10;;;;;;;23.12;9.85;;;;;;;20.81;78.79;98735.77;1691105;84;21556;-72
2021/08/30 06:19:42;;;;;;;16.40;9.45;;;;;;;20.89;78.70;98729.51;1689754;83;21634;-70
2021/08/30 06:22:16;;;;;;;15.85;9.78;;;;;;;20.96;78.35;98732.89;1690352;84;21024;-69
2021/08/30 06:24:47;;;;;;;23.00;9.50;;;;;;;21.03;78.06;98727.25;1695443;83;20945;-72
2021/08/30 06:27:17;;;;;;;28.25;9.40;;;;;;;21.09;77.71;98718.59;1684362;84;20949;-70
2021/08/30 06:29:48;;;;;;;14.10;9.55;;;;;;;21.16;77.46;98721.34;1693624;83;21025;-72
2021/08/30 06:32:20;;;;;;;19.73;10.10;;;;;;;21.24;77.35;98724.09;1709100;84;21032;-70
2021/08/30 06:34:55;;;;;;;17.67;9.90;;;;;;;21.30;76.90;98721.03;1702112;84;21068;-70
2021/08/30 06:37:21;;;;;;;18.87;11.35;;;;;;;21.32;76.54;98726.22;1701546;83;21008;-70
2021/08/30 06:39:49;;;;;;;14.05;10.25;;;;;;;21.34;76.50;98743.42;1694801;84;21421;-71
2021/08/30 06:42:17;;;;;;;25.12;10.10;;;;;;;21.34;76.43;98744.19;1694786;84;20962;-70
2021/08/30 06:44:52;;;;;;;21.50;12.13;;;;;;;21.35;76.10;98736.59;1697861;84;21556;-70
2021/08/30 06:47:19;;;;;;;19.37;9.45;;;;;;;21.32;75.68;98728.42;1709918;84;21064;-70
2021/08/30 06:49:48;;;;;;;17.37;9.85;;;;;;;21.27;75.37;98724.05;1684902;84;21386;-71
2021/08/30 06:52:15;;;;;;;23.02;10.72;;;;;;;21.26;75.74;98739.27;1682791;84;21030;-70
2021/08/30 06:54:44;;;;;;;19.65;10.20;;;;;;;21.27;76.02;98740.84;1680777;85;21517;-69
2021/08/30 06:57:12;;;;;;;21.97;9.65;;;;;;;21.30;76.06;98744.84;1681827;84;21088;-69
2021/08/30 06:59:44;;;;;;;21.30;10.35;;;;;;;21.34;75.69;98747.00;1681785;85;21682;-70
2021/08/30 07:02:12;;;;;;;22.32;10.58;;;;;;;21.37;75.31;98741.99;1704881;84;21528;-70
2021/08/30 07:04:40;;;;;;;27.00;10.60;;;;;;;21.39;74.97;98746.55;1710272;83;20930;-71
2021/08/30 07:07:07;;;;;;;20.10;9.83;;;;;;;21.42;75.19;98743.55;1708242;84;20934;-70
2021/08/30 07:09:34;;;;;;;18.32;9.90;;;;;;;21.46;74.96;98739.31;1700626;84;20987;-70
2021/08/30 07:12:02;;;;;;;19.25;10.35;;;;;;;21.48;74.87;98741.88;1680855;84;21046;-70
2021/08/30 07:14:32;;;;;;;19.00;10.93;;;;;;;21.49;74.16;98735.68;1696493;84;21024;-70
2021/08/30 07:17:00;;;;;;;20.85;10.75;;;;;;;21.48;73.40;98736.88;1679614;84;21040;-70
2021/08/30 07:19:28;;;;;;;15.08;10.03;;;;;;;21.46;73.65;98736.52;1710143;83;20961;-71
2021/08/30 07:22:00;;;;;;;19.30;10.23;;;;;;;21.47;73.82;98726.30;1709846;84;20993;-70
2021/08/30 07:24:33;;;;;;;17.65;10.15;;;;;;;21.52;73.44;98727.84;1709700;83;21068;-70
2021/08/30 07:27:02;;;;;;;25.15;10.72;;;;;;;21.57;73.71;98724.59;1709868;83;21442;-71
2021/08/30 07:29:31;;;;;;;21.25;10.58;;;;;;;21.66;73.93;98725.52;1709952;83;21442;-70
2021/08/30 07:31:58;;;;;;;16.85;10.32;;;;;;;21.73;73.50;98718.41;1678782;84;20965;-70
2021/08/30 07:34:26;;;;;;;19.50;10.40;;;;;;;21.74;73.22;98718.63;1709767;83;21005;-70
2021/08/30 07:36:57;;;;;;;17.92;10.25;;;;;;;21.77;73.53;98710.78;1707882;84;20971;-72
2021/08/30 07:39:29;;;;;;;20.82;11.28;;;;;;;21.83;73.34;98723.77;1691556;84;21039;-70
2021/08/30 07:41:57;;;;;;;18.30;10.48;;;;;;;21.88;73.24;98720.52;1636265;86;21067;-70
2021/08/30 07:44:28;;;;;;;21.95;11.65;;;;;;;21.92;73.04;98726.06;1690199;83;21048;-71
2021/08/30 07:47:01;;;;;;;19.32;11.57;;;;;;;21.97;73.39;98730.44;1716071;83;20918;-71
2021/08/30 07:49:27;;;;;;;19.05;12.68;;;;;;;22.01;73.18;98724.97;1667808;84;21762;-70
2021/08/30 07:51:55;;;;;;;20.62;11.18;;;;;;;22.04;72.95;98728.93;1681352;85;20962;-71
2021/08/30 07:54:21;;;;;;;21.20;11.28;;;;;;;22.10;73.05;98731.48;1681508;85;21499;-71
2021/08/30 07:56:50;;;;;;;23.92;11.18;;;;;;;22.18;73.57;98720.19;1653248;84;21070;-72
2021/08/30 07:59:19;;;;;;;18.62;10.35;;;;;;;22.26;74.10;98718.88;1710134;84;20997;-71
2021/08/30 08:01:49;;;;;;;23.87;11.03;;;;;;;22.33;73.69;98746.83;1709934;84;21080;-70
2021/08/30 08:04:19;;;;;;;18.27;11.00;;;;;;;22.37;72.90;98739.77;1698782;84;21408;-70
2021/08/30 08:06:47;;;;;;;22.67;11.43;;;;;;;22.42;72.42;98734.29;1688738;83;21076;-72
2021/08/30 08:09:13;;;;;;;16.52;11.40;;;;;;;22.47;72.70;98743.65;1681745;83;21021;-71
2021/08/30 08:11:41;;;;;;;23.65;11.20;;;;;;;22.53;72.40;98739.17;1657574;84;21052;-70
2021/08/30 08:14:07;;;;;;;19.10;10.72;;;;;;;22.53;71.97;98736.37;1691466;83;21060;-70
2021/08/30 08:16:35;;;;;;;19.32;11.63;;;;;;;22.52;71.63;98745.98;1663482;84;21626;-71
2021/08/30 08:19:02;;;;;;;19.73;12.47;;;;;;;22.57;72.00;98738.50;1703709;83;21028;-71
2021/08/30 08:21:33;;;;;;;17.17;10.82;;;;;;;22.63;72.11;98757.11;1700786;83;21061;-71
2021/08/30 08:24:04;;;;;;;21.40;11.33;;;;;;;22.67;71.95;98745.84;1691977;83;21052;-68
2021/08/30 08:26:31;;;;;;;23.47;10.93;;;;;;;22.73;72.05;98739.93;1698691;83;21143;-69
2021/08/30 08:29:02;;;;;;;18.15;10.20;;;;;;;22.81;71.89;98734.39;1681404;84;21044;-70
2021/08/30 08:31:33;;;;;;;19.05;11.48;;;;;;;22.91;72.20;98717.83;1667089;85;21062;-70
2021/08/30 08:34:00;;;;;;;23.38;11.50;;;;;;;22.98;71.93;98728.33;1677813;83;21045;-70
2021/08/30 08:36:27;;;;;;;19.95;11.40;;;;;;;23.04;71.40;98737.08;1650846;83;21081;-70
2021/08/30 08:39:01;;;;;;;24.52;12.35;;;;;;;23.14;71.39;98712.04;1702972;82;21252;-72
2021/08/30 08:41:29;;;;;;;23.30;11.75;;;;;;;23.28;71.61;98713.23;1688448;85;20976;-71
2021/08/30 08:43:55;;;;;;;19.55;12.33;;;;;;;23.47;72.12;98703.91;1686674;85;21051;-70
2021/08/30 08:46:24;;;;;;;21.50;11.45;;;;;;;23.64;71.52;98701.19;1657000;85;21110;-69
2021/08/30 08:48:51;;;;;;;15.85;11.55;;;;;;;23.69;69.75;98710.53;1657338;85;21064;-69
2021/08/30 08:51:22;;;;;;;26.85;11.35;;;;;;;23.67;69.12;98715.19;1692122;84;21047;-69
2021/08/30 08:53:50;;;;;;;16.32;11.85;;;;;;;23.64;68.87;98711.03;1703795;84;20980;-69
2021/08/30 08:56:29;;;;;;;21.62;12.78;;;;;;;23.59;68.98;98694.83;1703303;83;21285;-70
2021/08/30 08:59:02;;;;;;;24.85;12.25;;;;;;;23.61;69.14;98699.24;1703170;83;21111;-69
2021/08/30 09:01:36;;;;;;;29.37;12.58;;;;;;;23.71;70.57;98715.13;1703507;83;21281;-69
2021/08/30 09:04:05;;;;;;;19.02;12.82;;;;;;;23.81;70.05;98711.92;1707894;83;21109;-70
2021/08/30 09:06:43;;;;;;;25.97;13.05;;;;;;;23.80;68.43;98705.50;1715556;83;21068;-68
2021/08/30 09:09:14;;;;;;;17.40;12.63;;;;;;;23.82;68.47;98686.78;1716433;83;21049;-68
2021/08/30 09:11:44;;;;;;;27.00;13.05;;;;;;;23.83;67.74;98692.61;1687825;83;21037;-68
2021/08/30 09:14:18;;;;;;;24.15;14.10;;;;;;;23.83;67.41;98691.20;1716111;83;21582;-69
2021/08/30 09:16:51;;;;;;;20.80;12.45;;;;;;;23.89;67.49;98681.63;1716198;83;21117;-69
2021/08/30 09:19:25;;;;;;;21.60;13.10;;;;;;;23.98;68.53;98717.02;1714574;83;21041;-69
2021/08/30 09:21:55;;;;;;;20.27;12.28;;;;;;;24.09;68.10;98716.02;1687649;83;21043;-69
2021/08/30 09:24:24;;;;;;;21.50;12.68;;;;;;;24.19;67.59;98712.22;1714602;83;21016;-68
2021/08/30 09:27:03;;;;;;;20.57;13.05;;;;;;;24.28;66.83;98701.16;1729715;83;21000;-69
2021/08/30 09:29:32;;;;;;;32.23;12.13;;;;;;;24.34;66.09;98690.20;1701010;83;21588;-70
2021/08/30 09:32:15;;;;;;;33.35;13.32;;;;;;;24.36;65.82;98707.42;1695451;84;21072;-69
2021/08/30 09:34:57;;;;;;;36.20;13.88;;;;;;;24.41;65.78;98706.91;1678627;83;21528;-69
2021/08/30 09:37:27;;;;;;;28.25;13.35;;;;;;;24.44;65.30;98688.38;1710964;83;21051;-69
2021/08/30 09:40:02;;;;;;;26.95;14.05;;;;;;;24.46;65.39;98688.73;1708868;83;21123;-69
2021/08/30 09:42:32;;;;;;;26.75;12.93;;;;;;;24.49;65.52;98684.24;1715969;83;21163;-70
2021/08/30 09:45:16;;;;;;;29.45;13.13;;;;;;;24.51;65.37;98686.81;1712606;82;21532;-69
2021/08/30 09:47:58;;;;;;;;;;;;;;;24.55;65.71;98693.14;1698648;84;21024;-68
2021/08/30 09:50:43;;;;;;;19.12;12.23;;;;;;;24.62;65.59;98682.94;1696138;84;20245;-70
2021/08/30 09:53:10;;;;;;;24.50;12.00;;;;;;;24.74;65.95;98685.69;1705892;83;21028;-69
2021/08/30 09:55:38;;;;;;;27.90;12.20;;;;;;;24.89;65.67;98697.42;1685919;84;21927;-68
2021/08/30 09:58:08;;;;;;;26.12;13.08;;;;;;;25.00;65.77;98701.41;1669462;84;21040;-69
2021/08/30 10:00:44;;;;;;;21.97;12.98;;;;;;;25.07;65.03;98694.80;1706446;83;21410;-69
2021/08/30 10:03:15;;;;;;;26.55;13.45;;;;;;;25.07;64.76;98693.40;1704721;83;21020;-69
2021/08/30 10:05:44;;;;;;;24.02;12.88;;;;;;;25.00;64.06;98700.80;1710915;83;20989;-70
2021/08/30 10:08:18;;;;;;;26.02;13.22;;;;;;;24.94;64.39;98713.84;1715931;83;21092;-69
2021/08/30 10:10:49;;;;;;;22.25;12.75;;;;;;;24.94;64.76;98708.20;1685469;84;21096;-68
2021/08/30 10:13:20;;;;;;;27.75;12.65;;;;;;;24.95;64.12;98701.33;1699932;84;21017;-70
2021/08/30 10:15:56;;;;;;;18.02;11.57;;;;;;;24.95;64.21;98719.63;1700350;83;21053;-70
2021/08/30 10:18:24;;;;;;;18.77;12.37;;;;;;;24.92;63.54;98713.48;1700371;84;21465;-69
2021/08/30 10:20:54;;;;;;;22.75;13.78;;;;;;;24.89;63.79;98722.14;1696935;83;22156;-70
2021/08/30 10:23:22;;;;;;;22.60;13.13;;;;;;;24.87;63.58;98709.11;1722963;83;21310;-70
2021/08/30 10:26:02;;;;;;;22.75;12.15;;;;;;;24.83;62.93;98702.78;1646469;84;21054;-69
2021/08/30 10:28:38;;;;;;;28.23;12.28;;;;;;;24.82;63.64;98706.84;1695719;84;21011;-69
2021/08/30 10:31:20;;;;;;;19.30;12.60;;;;;;;24.86;64.21;98708.14;1696043;84;21016;-70
2021/08/30 10:33:58;;;;;;;27.80;13.08;;;;;;;24.95;64.15;98718.23;1694852;84;21018;-68
2021/08/30 10:36:31;;;;;;;23.60;13.08;;;;;;;25.03;63.41;98712.59;1698630;83;21013;-68
2021/08/30 10:39:06;;;;;;;20.20;12.37;;;;;;;25.02;63.12;98710.22;1695195;84;21098;-70
2021/08/30 10:41:43;;;;;;;24.40;13.62;;;;;;;25.03;63.66;98706.16;1695756;84;21051;-68
2021/08/30 10:44:14;;;;;;;27.15;13.25;;;;;;;25.07;63.78;98714.53;1695436;84;21051;-69
2021/08/30 10:46:50;;;;;;;26.15;13.58;;;;;;;25.13;63.88;98710.74;1685233;83;21055;-69
2021/08/30 10:49:34;;;;;;;23.52;12.60;;;;;;;25.29;64.41;98702.11;1724086;83;20988;-70
2021/08/30 10:52:07;;;;;;;24.63;14.95;;;;;;;25.50;64.28;98714.08;1728171;83;21011;-70
2021/08/30 10:54:36;;;;;;;20.97;12.80;;;;;;;25.74;64.12;98707.60;1727295;83;21008;-68
2021/08/30 10:57:05;;;;;;;29.00;14.60;;;;;;;25.97;63.65;98700.75;1688263;83;21083;-69
2021/08/30 10:59:34;;;;;;;24.72;13.45;;;;;;;26.16;62.44;98713.73;1726417;83;21077;-69
2021/08/30 11:02:03;;;;;;;21.15;12.68;;;;;;;26.30;61.22;98699.21;1727789;83;21005;-70
2021/08/30 11:04:38;;;;;;;33.42;14.05;;;;;;;26.40;60.60;98703.59;1727165;83;21019;-70
2021/08/30 11:07:07;;;;;;;21.00;13.68;;;;;;;26.43;59.92;98699.86;1700814;83;21048;-70
2021/08/30 11:09:36;;;;;;;23.40;12.15;;;;;;;26.43;60.11;98690.78;1700624;81;21605;-70
2021/08/30 11:12:11;;;;;;;20.48;12.33;;;;;;;26.49;60.48;98696.67;1727446;83;20972;-70
2021/08/30 11:14:39;;;;;;;19.82;12.60;;;;;;;26.54;60.71;98698.94;1720902;83;21551;-70
2021/08/30 11:17:13;;;;;;;24.85;13.58;;;;;;;26.61;60.90;98688.04;1707951;83;21492;-70
2021/08/30 11:19:40;;;;;;;20.05;13.10;;;;;;;26.67;60.56;98687.64;1689682;83;21088;-70
2021/08/30 11:22:10;;;;;;;19.25;13.32;;;;;;;26.73;60.63;98690.70;1688051;83;21047;-69
2021/08/30 11:24:47;;;;;;;23.20;12.60;;;;;;;26.80;60.29;98684.80;1709896;82;21091;-70
2021/08/30 11:27:20;;;;;;;22.90;12.33;;;;;;;26.89;60.73;98684.73;1663083;84;21124;-70
2021/08/30 11:29:54;;;;;;;21.07;14.13;;;;;;;26.97;60.47;98694.58;1693614;84;21045;-69
2021/08/30 11:32:28;;;;;;;33.85;14.35;;;;;;;27.05;59.52;98693.75;1677362;82;21744;-69
2021/08/30 11:35:01;;;;;;;28.65;14.20;;;;;;;27.06;58.78;98700.97;1679174;85;21091;-70
2021/08/30 11:37:31;;;;;;;20.72;14.87;;;;;;;27.05;58.66;98700.20;1684405;84;21275;-69
2021/08/30 11:40:12;;;;;;;27.90;13.65;;;;;;;27.03;58.64;98699.05;1705002;84;21088;-69